Time;durP1;ratioP1;P1;durP2;ratioP2;P2;SDS_P1;SDS_P2;PMS_P1;PMS_P2;Temp;Humidity;BMP_temperature;BMP_pressure;BME280_temperature;BME280_humidity;BME280_pressure;Samples;Min_cycle;Max_cycle;Signal;HPM_P1;HPM_P2
2023/04/26 00:02:10;;;;;;;19.35;4.50;;;;;;;;;;4964737;28;92517;-74
2023/04/26 00:04:37;;;;;;;10.02;4.45;;;;;;;;;;4967208;28;94025;-73
2023/04/26 00:07:04;;;;;;;18.98;4.35;;;;;;;;;;4968697;28;95747;-74
2023/04/26 00:09:30;;;;;;;12.93;4.32;;;;;;;;;;4966137;28;92879;-74
2023/04/26 00:11:57;;;;;;;9.65;4.00;;;;;;;;;;4967909;28;93268;-74
2023/04/26 00:14:23;;;;;;;14.60;4.03;;;;;;;;;;4974428;28;93493;-74
2023/04/26 00:16:50;;;;;;;9.60;3.50;;;;;;;;;;4975119;28;92486;-74
2023/04/26 00:19:16;;;;;;;16.80;4.40;;;;;;;;;;4975991;28;93336;-73
2023/04/26 00:21:43;;;;;;;17.58;3.97;;;;;;;;;;4964703;28;92493;-73
2023/04/26 00:24:09;;;;;;;10.68;4.15;;;;;;;;;;4955670;28;93153;-74
2023/04/26 00:26:35;;;;;;;7.68;4.13;;;;;;;;;;4955301;28;94546;-74
2023/04/26 00:29:04;;;;;;;9.77;3.88;;;;;;;;;;4958518;28;92465;-74
2023/04/26 00:31:31;;;;;;;14.30;4.75;;;;;;;;;;4973339;28;94904;-73
2023/04/26 00:33:57;;;;;;;14.13;4.60;;;;;;;;;;4974399;28;93385;-73
2023/04/26 00:36:24;;;;;;;8.38;4.20;;;;;;;;;;4972891;28;92431;-73
2023/04/26 00:38:50;;;;;;;9.68;4.05;;;;;;;;;;4974699;28;93413;-73
2023/04/26 00:41:16;;;;;;;16.05;5.28;;;;;;;;;;4976776;28;94480;-73
2023/04/26 00:43:44;;;;;;;16.63;4.78;;;;;;;;;;4957240;28;93146;-73
2023/04/26 00:46:10;;;;;;;14.05;4.32;;;;;;;;;;4972249;28;93531;-74
2023/04/26 00:48:36;;;;;;;8.48;4.63;;;;;;;;;;4968535;28;91969;-73
2023/04/26 00:51:04;;;;;;;8.07;4.30;;;;;;;;;;4971576;28;92409;-73
2023/04/26 00:53:30;;;;;;;14.27;4.45;;;;;;;;;;4955510;28;93593;-73
2023/04/26 00:55:57;;;;;;;11.45;4.72;;;;;;;;;;4968339;28;94881;-73
2023/04/26 00:58:24;;;;;;;13.73;4.18;;;;;;;;;;4970123;28;96034;-73
2023/04/26 01:00:51;;;;;;;12.07;4.35;;;;;;;;;;4970480;28;93375;-74
2023/04/26 01:03:17;;;;;;;11.85;4.32;;;;;;;;;;4974458;28;94373;-73
2023/04/26 01:05:44;;;;;;;14.95;4.65;;;;;;;;;;4970762;28;93236;-74
2023/04/26 01:08:11;;;;;;;14.05;4.68;;;;;;;;;;4971381;28;92591;-74
2023/04/26 01:10:38;;;;;;;16.63;4.90;;;;;;;;;;4972315;28;94209;-74
2023/04/26 01:13:04;;;;;;;15.23;4.75;;;;;;;;;;4969110;28;92812;-73
2023/04/26 01:15:32;;;;;;;15.65;4.75;;;;;;;;;;4967194;28;92544;-74
2023/04/26 01:17:58;;;;;;;16.27;5.28;;;;;;;;;;4971028;28;94008;-74
2023/04/26 01:20:25;;;;;;;16.02;5.07;;;;;;;;;;4971452;28;94884;-74
2023/04/26 01:22:52;;;;;;;13.25;5.28;;;;;;;;;;4975784;28;92639;-74
2023/04/26 01:25:19;;;;;;;13.98;5.40;;;;;;;;;;4974786;28;93805;-74
2023/04/26 01:27:45;;;;;;;11.90;5.15;;;;;;;;;;4964788;28;93181;-74
2023/04/26 01:30:12;;;;;;;11.93;5.30;;;;;;;;;;4969801;28;94266;-74
2023/04/26 01:32:38;;;;;;;12.43;5.43;;;;;;;;;;4974109;28;93549;-74
2023/04/26 01:35:05;;;;;;;13.82;5.65;;;;;;;;;;4960034;28;94113;-74
2023/04/26 01:37:31;;;;;;;11.40;5.38;;;;;;;;;;4967944;28;92969;-74
2023/04/26 01:39:57;;;;;;;15.95;6.40;;;;;;;;;;4971920;28;93783;-74
2023/04/26 01:42:24;;;;;;;9.35;5.70;;;;;;;;;;4973430;28;92842;-74
2023/04/26 01:44:50;;;;;;;15.50;5.97;;;;;;;;;;4974960;28;95608;-73
2023/04/26 01:47:16;;;;;;;17.38;5.13;;;;;;;;;;4976960;28;93825;-74
2023/04/26 01:49:43;;;;;;;18.77;6.85;;;;;;;;;;4976466;28;93091;-75
2023/04/26 01:52:09;;;;;;;12.48;4.93;;;;;;;;;;4957212;28;93510;-73
2023/04/26 01:54:35;;;;;;;23.67;6.28;;;;;;;;;;4975199;28;93604;-73
2023/04/26 01:57:02;;;;;;;16.65;5.63;;;;;;;;;;4973288;28;94279;-73
2023/04/26 01:59:28;;;;;;;10.60;5.55;;;;;;;;;;4973156;28;93515;-74
2023/04/26 02:01:55;;;;;;;18.40;6.07;;;;;;;;;;4965808;28;92157;-74
2023/04/26 02:04:23;;;;;;;16.77;6.10;;;;;;;;;;4971464;28;94108;-74
2023/04/26 02:06:49;;;;;;;13.88;6.50;;;;;;;;;;4975299;28;93942;-73
2023/04/26 02:09:15;;;;;;;13.60;5.78;;;;;;;;;;4962519;28;94821;-73
2023/04/26 02:11:42;;;;;;;17.30;5.85;;;;;;;;;;4974770;28;93346;-74
2023/04/26 02:14:08;;;;;;;15.30;6.38;;;;;;;;;;4960201;28;92509;-74
2023/04/26 02:16:35;;;;;;;22.23;6.70;;;;;;;;;;4968605;28;93224;-75
2023/04/26 02:19:04;;;;;;;14.38;6.40;;;;;;;;;;4960681;28;93409;-74
2023/04/26 02:21:30;;;;;;;13.57;6.40;;;;;;;;;;4964623;28;92545;-74
2023/04/26 02:23:56;;;;;;;14.30;6.82;;;;;;;;;;4976781;28;93633;-74
2023/04/26 02:26:22;;;;;;;18.42;7.20;;;;;;;;;;4977028;28;92766;-73
2023/04/26 02:28:49;;;;;;;16.35;8.13;;;;;;;;;;4979807;28;92727;-75
2023/04/26 02:31:15;;;;;;;20.23;8.15;;;;;;;;;;4976643;28;94475;-73
2023/04/26 02:33:42;;;;;;;17.48;8.68;;;;;;;;;;4975099;28;94870;-74
2023/04/26 02:36:08;;;;;;;18.42;8.45;;;;;;;;;;4957899;28;95554;-73
2023/04/26 02:38:35;;;;;;;15.27;7.65;;;;;;;;;;4973551;28;93485;-73
2023/04/26 02:41:02;;;;;;;21.48;7.95;;;;;;;;;;4974622;28;92974;-73
2023/04/26 02:43:29;;;;;;;16.42;7.95;;;;;;;;;;4958694;28;94316;-73
2023/04/26 02:45:57;;;;;;;19.02;7.82;;;;;;;;;;4963995;28;93564;-73
2023/04/26 02:48:24;;;;;;;16.42;7.30;;;;;;;;;;4969136;28;93892;-74
2023/04/26 02:50:51;;;;;;;14.57;8.07;;;;;;;;;;4969598;28;94403;-74
2023/04/26 02:53:17;;;;;;;16.13;7.78;;;;;;;;;;4957123;28;92482;-75
2023/04/26 02:55:43;;;;;;;17.90;7.78;;;;;;;;;;4973990;28;92518;-73
2023/04/26 02:58:10;;;;;;;16.10;7.63;;;;;;;;;;4969335;28;95933;-73
2023/04/26 03:00:36;;;;;;;16.55;7.65;;;;;;;;;;4972474;28;92960;-73
2023/04/26 03:03:02;;;;;;;17.85;7.70;;;;;;;;;;4970828;28;94313;-73
2023/04/26 03:05:29;;;;;;;18.40;8.40;;;;;;;;;;4972444;28;94649;-73
2023/04/26 03:07:55;;;;;;;14.63;7.97;;;;;;;;;;4975644;28;93416;-74
2023/04/26 03:10:21;;;;;;;17.55;8.52;;;;;;;;;;4974496;28;93027;-73
2023/04/26 03:12:48;;;;;;;17.67;9.50;;;;;;;;;;4959981;28;92548;-73
2023/04/26 03:15:14;;;;;;;19.10;9.05;;;;;;;;;;4973392;28;93181;-73
2023/04/26 03:17:41;;;;;;;19.95;8.50;;;;;;;;;;4968888;28;93594;-75
2023/04/26 03:20:09;;;;;;;18.25;8.70;;;;;;;;;;4971026;28;94982;-75
2023/04/26 03:22:36;;;;;;;16.52;8.50;;;;;;;;;;4955888;28;94875;-74
2023/04/26 03:25:02;;;;;;;19.30;8.77;;;;;;;;;;4968384;28;93370;-74
2023/04/26 03:27:29;;;;;;;20.15;8.90;;;;;;;;;;4974135;28;92701;-74
2023/04/26 03:29:55;;;;;;;17.58;9.18;;;;;;;;;;4974954;28;93239;-74
2023/04/26 03:32:21;;;;;;;24.08;8.98;;;;;;;;;;4975207;28;93427;-74
2023/04/26 03:34:48;;;;;;;17.65;8.80;;;;;;;;;;4960206;28;93658;-74
2023/04/26 03:37:15;;;;;;;14.73;8.20;;;;;;;;;;4973470;28;92495;-74
2023/04/26 03:39:41;;;;;;;24.38;9.90;;;;;;;;;;4975506;28;92020;-74
2023/04/26 03:42:07;;;;;;;17.05;8.75;;;;;;;;;;4972854;28;93972;-74
2023/04/26 03:44:33;;;;;;;22.90;9.70;;;;;;;;;;4968168;28;94467;-74
2023/04/26 03:47:00;;;;;;;15.10;8.48;;;;;;;;;;4958807;28;96262;-73
2023/04/26 03:49:26;;;;;;;16.90;8.73;;;;;;;;;;4972741;28;94612;-74
2023/04/26 03:51:52;;;;;;;14.15;8.05;;;;;;;;;;4973114;28;93814;-74
2023/04/26 03:54:19;;;;;;;21.92;9.15;;;;;;;;;;4973555;28;92426;-73
2023/04/26 03:56:45;;;;;;;17.77;8.43;;;;;;;;;;4963742;28;93498;-71
2023/04/26 03:59:11;;;;;;;14.70;7.88;;;;;;;;;;4972400;28;92418;-71
2023/04/26 04:01:38;;;;;;;17.60;9.23;;;;;;;;;;4976002;28;94218;-73
2023/04/26 04:04:04;;;;;;;22.33;9.13;;;;;;;;;;4971198;28;92355;-73
2023/04/26 04:06:31;;;;;;;17.90;8.75;;;;;;;;;;4972338;28;92432;-73
2023/04/26 04:08:57;;;;;;;21.20;9.82;;;;;;;;;;4979984;28;94216;-73
2023/04/26 04:11:24;;;;;;;27.63;12.43;;;;;;;;;;4974931;28;96999;-73
2023/04/26 04:13:50;;;;;;;21.08;11.70;;;;;;;;;;4963519;28;92771;-73
2023/04/26 04:16:16;;;;;;;19.45;9.98;;;;;;;;;;4974164;28;93440;-73
2023/04/26 04:18:43;;;;;;;20.73;9.82;;;;;;;;;;4973908;28;92528;-73
2023/04/26 04:21:09;;;;;;;18.90;8.40;;;;;;;;;;4974905;28;93269;-73
2023/04/26 04:23:35;;;;;;;18.35;8.73;;;;;;;;;;4975249;28;94916;-74
2023/04/26 04:26:02;;;;;;;20.25;8.73;;;;;;;;;;4989182;28;92274;-75
2023/04/26 04:28:28;;;;;;;20.20;9.60;;;;;;;;;;4983502;28;93124;-74
2023/04/26 04:30:55;;;;;;;22.00;9.50;;;;;;;;;;4966753;28;93599;-73
2023/04/26 04:33:22;;;;;;;16.98;9.05;;;;;;;;;;4974345;28;92681;-74
2023/04/26 04:35:48;;;;;;;18.27;8.95;;;;;;;;;;4970998;28;95042;-75
2023/04/26 04:38:14;;;;;;;18.00;8.93;;;;;;;;;;4977170;28;92758;-73
2023/04/26 04:40:41;;;;;;;18.67;8.15;;;;;;;;;;4968006;28;93353;-74
2023/04/26 04:43:07;;;;;;;17.67;8.45;;;;;;;;;;4971265;28;93501;-74
2023/04/26 04:45:34;;;;;;;15.93;8.02;;;;;;;;;;4966539;28;92547;-74
2023/04/26 04:48:00;;;;;;;21.40;7.70;;;;;;;;;;4970952;28;94510;-74
2023/04/26 04:50:28;;;;;;;16.08;7.30;;;;;;;;;;4960658;28;94424;-74
2023/04/26 04:52:54;;;;;;;14.45;7.78;;;;;;;;;;4971933;28;91665;-74
2023/04/26 04:55:21;;;;;;;14.65;7.53;;;;;;;;;;4974250;28;92640;-73
2023/04/26 04:57:47;;;;;;;19.08;8.23;;;;;;;;;;4958074;28;93568;-73
2023/04/26 05:00:14;;;;;;;16.70;8.25;;;;;;;;;;4972702;28;94860;-73
2023/04/26 05:02:40;;;;;;;14.95;7.75;;;;;;;;;;4960151;28;93622;-73
2023/04/26 05:05:07;;;;;;;17.45;8.77;;;;;;;;;;4959245;28;92454;-73
2023/04/26 05:07:34;;;;;;;18.88;8.43;;;;;;;;;;4972558;28;93380;-73
2023/04/26 05:10:00;;;;;;;25.23;9.90;;;;;;;;;;4961706;28;93303;-75
2023/04/26 05:12:27;;;;;;;21.10;9.65;;;;;;;;;;4972209;28;92486;-75
2023/04/26 05:14:53;;;;;;;23.35;9.20;;;;;;;;;;4962574;28;93678;-73
2023/04/26 05:17:19;;;;;;;21.35;9.13;;;;;;;;;;4970676;28;92655;-74
2023/04/26 05:19:46;;;;;;;16.73;8.82;;;;;;;;;;4974628;28;92557;-73
2023/04/26 05:22:17;;;;;;;16.73;8.23;;;;;;;;;;4964578;28;95594;-73
2023/04/26 05:24:45;;;;;;;29.55;12.18;;;;;;;;;;4967437;28;94919;-73
2023/04/26 05:27:13;;;;;;;21.23;10.70;;;;;;;;;;4970714;28;96880;-73
2023/04/26 05:29:40;;;;;;;19.33;9.85;;;;;;;;;;4970807;28;93447;-74
2023/04/26 05:32:06;;;;;;;22.58;9.30;;;;;;;;;;4971606;28;92488;-73
2023/04/26 05:34:33;;;;;;;20.48;8.88;;;;;;;;;;4970889;28;93109;-73
2023/04/26 05:36:59;;;;;;;16.27;10.32;;;;;;;;;;4965799;28;93015;-73
2023/04/26 05:39:26;;;;;;;30.73;9.82;;;;;;;;;;4968507;28;93208;-73
2023/04/26 05:41:52;;;;;;;16.83;9.13;;;;;;;;;;4976712;28;93440;-75
2023/04/26 05:44:18;;;;;;;19.17;9.25;;;;;;;;;;4960713;28;92473;-75
2023/04/26 05:46:45;;;;;;;21.33;9.00;;;;;;;;;;4964259;28;93349;-76
2023/04/26 05:49:11;;;;;;;22.55;8.55;;;;;;;;;;4962929;28;95816;-75
2023/04/26 05:51:37;;;;;;;15.65;8.38;;;;;;;;;;4971422;28;93627;-75
2023/04/26 05:54:04;;;;;;;28.88;9.57;;;;;;;;;;4970679;28;93649;-75
2023/04/26 05:56:30;;;;;;;15.77;8.02;;;;;;;;;;4968037;28;92501;-75
2023/04/26 05:58:57;;;;;;;24.45;8.43;;;;;;;;;;4954317;28;92652;-75
2023/04/26 06:01:23;;;;;;;18.15;7.45;;;;;;;;;;4959540;28;93061;-75
2023/04/26 06:03:50;;;;;;;15.82;8.35;;;;;;;;;;4957000;28;94012;-75
2023/04/26 06:06:18;;;;;;;18.17;8.55;;;;;;;;;;4967621;28;94354;-75
2023/04/26 06:08:45;;;;;;;20.77;8.13;;;;;;;;;;4955048;28;94840;-75
2023/04/26 06:11:11;;;;;;;12.10;7.20;;;;;;;;;;4961692;28;92493;-75
2023/04/26 06:13:37;;;;;;;13.40;7.07;;;;;;;;;;4975381;28;94863;-75
2023/04/26 06:16:04;;;;;;;19.40;8.80;;;;;;;;;;4973272;28;93284;-75
2023/04/26 06:18:30;;;;;;;17.77;7.25;;;;;;;;;;4963854;28;92560;-75
2023/04/26 06:20:56;;;;;;;29.35;10.15;;;;;;;;;;4968852;28;96820;-75
2023/04/26 06:23:23;;;;;;;21.55;8.35;;;;;;;;;;4973646;28;96107;-75
2023/04/26 06:25:49;;;;;;;20.58;7.05;;;;;;;;;;4977759;28;92534;-75
2023/04/26 06:28:15;;;;;;;18.20;5.70;;;;;;;;;;4961693;28;93415;-74
2023/04/26 06:30:42;;;;;;;15.23;5.25;;;;;;;;;;4969101;28;91786;-75
2023/04/26 06:33:08;;;;;;;22.90;6.00;;;;;;;;;;4976238;28;92852;-75
2023/04/26 06:35:41;;;;;;;17.13;5.78;;;;;;;;;;4973732;28;93839;-74
2023/04/26 06:38:07;;;;;;;16.00;5.72;;;;;;;;;;4961637;28;94873;-75
2023/04/26 06:40:36;;;;;;;15.52;5.00;;;;;;;;;;4973095;28;95582;-73
2023/04/26 06:43:02;;;;;;;19.02;4.95;;;;;;;;;;4964933;28;93439;-76
2023/04/26 06:45:29;;;;;;;18.50;4.57;;;;;;;;;;4959783;28;92450;-76
2023/04/26 06:47:56;;;;;;;19.17;4.43;;;;;;;;;;4971288;28;94282;-75
2023/04/26 06:50:22;;;;;;;11.15;3.67;;;;;;;;;;4974313;28;92524;-74
2023/04/26 06:52:48;;;;;;;13.88;3.65;;;;;;;;;;4966894;28;93168;-76
2023/04/26 06:55:15;;;;;;;8.73;2.80;;;;;;;;;;4963073;28;93076;-75
2023/04/26 06:57:41;;;;;;;9.20;3.40;;;;;;;;;;4968017;28;92687;-75
2023/04/26 07:00:08;;;;;;;10.65;3.20;;;;;;;;;;4968459;28;94118;-74
2023/04/26 07:02:35;;;;;;;10.50;3.38;;;;;;;;;;4957176;28;96010;-74
2023/04/26 07:05:01;;;;;;;12.95;2.35;;;;;;;;;;4974888;28;93610;-74
2023/04/26 07:07:28;;;;;;;6.43;2.55;;;;;;;;;;4967097;28;92989;-74
2023/04/26 07:09:54;;;;;;;11.20;2.55;;;;;;;;;;4971824;28;93765;-74
2023/04/26 07:12:20;;;;;;;17.27;3.17;;;;;;;;;;4959598;28;93221;-74
2023/04/26 07:14:47;;;;;;;4.72;2.38;;;;;;;;;;4973783;28;95814;-75
2023/04/26 07:17:13;;;;;;;6.43;2.63;;;;;;;;;;4971306;28;92535;-75
2023/04/26 07:19:39;;;;;;;3.83;1.98;;;;;;;;;;4971445;28;93140;-77
2023/04/26 07:22:06;;;;;;;9.32;2.25;;;;;;;;;;4971829;28;93984;-78
2023/04/26 07:24:32;;;;;;;15.13;2.80;;;;;;;;;;4974667;28;92690;-78
2023/04/26 07:26:58;;;;;;;5.68;2.13;;;;;;;;;;4971885;28;95538;-78
2023/04/26 07:29:25;;;;;;;5.32;2.40;;;;;;;;;;4973749;28;93827;-79
2023/04/26 07:31:51;;;;;;;9.77;3.03;;;;;;;;;;4971036;28;93995;-79
2023/04/26 07:34:18;;;;;;;10.52;3.20;;;;;;;;;;4970169;28;93554;-78
2023/04/26 07:36:44;;;;;;;9.48;2.83;;;;;;;;;;4973833;28;94180;-78
2023/04/26 07:39:10;;;;;;;8.30;3.10;;;;;;;;;;4976611;28;94233;-78
2023/04/26 07:41:37;;;;;;;9.18;2.97;;;;;;;;;;4974134;28;93517;-76
2023/04/26 07:44:04;;;;;;;10.65;2.63;;;;;;;;;;4975236;28;91759;-79
2023/04/26 07:46:31;;;;;;;13.85;2.90;;;;;;;;;;4973890;28;92897;-77
2023/04/26 07:48:58;;;;;;;12.30;3.88;;;;;;;;;;4973725;28;93694;-77
2023/04/26 07:51:24;;;;;;;6.70;2.88;;;;;;;;;;4977159;28;95191;-77
2023/04/26 07:53:50;;;;;;;9.15;2.00;;;;;;;;;;4972755;28;93506;-77
2023/04/26 07:56:17;;;;;;;9.18;2.55;;;;;;;;;;4956200;28;92537;-78
2023/04/26 07:58:43;;;;;;;6.13;2.95;;;;;;;;;;4953890;28;95729;-75
2023/04/26 08:01:10;;;;;;;15.90;3.20;;;;;;;;;;4965342;28;93889;-78
2023/04/26 08:03:37;;;;;;;10.68;3.13;;;;;;;;;;4975068;28;92514;-78
2023/04/26 08:06:03;;;;;;;18.10;4.00;;;;;;;;;;4965547;28;93876;-79
2023/04/26 08:08:32;;;;;;;9.20;3.38;;;;;;;;;;4963177;28;93725;-79
2023/04/26 08:10:58;;;;;;;10.77;3.00;;;;;;;;;;4966844;28;92504;-79
2023/04/26 08:13:25;;;;;;;7.43;2.78;;;;;;;;;;4971197;28;93148;-77
2023/04/26 08:15:54;;;;;;;16.13;2.87;;;;;;;;;;4973086;28;95520;-79
2023/04/26 08:18:21;;;;;;;14.25;2.70;;;;;;;;;;4974254;28;94390;-79
2023/04/26 08:20:47;;;;;;;5.45;2.58;;;;;;;;;;4972247;28;93579;-78
2023/04/26 08:23:13;;;;;;;7.20;2.30;;;;;;;;;;4960265;28;93188;-79
2023/04/26 08:25:40;;;;;;;6.88;2.30;;;;;;;;;;4969268;28;93949;-78
2023/04/26 08:28:07;;;;;;;6.80;2.53;;;;;;;;;;4968111;28;94437;-77
2023/04/26 08:30:33;;;;;;;7.57;2.60;;;;;;;;;;4955446;28;92487;-77
2023/04/26 08:33:00;;;;;;;8.65;2.30;;;;;;;;;;4970592;28;93532;-77
2023/04/26 08:35:26;;;;;;;5.85;2.15;;;;;;;;;;4974372;28;93291;-77
2023/04/26 08:37:53;;;;;;;5.07;1.90;;;;;;;;;;4972630;28;93203;-77
2023/04/26 08:40:21;;;;;;;6.53;1.90;;;;;;;;;;4972606;28;95873;-79
2023/04/26 08:42:47;;;;;;;16.45;2.83;;;;;;;;;;4972601;28;92508;-78
2023/04/26 08:45:15;;;;;;;5.50;1.85;;;;;;;;;;4955078;28;93164;-77
2023/04/26 08:47:48;;;;;;;10.52;1.73;;;;;;;;;;4969199;28;93539;-77
2023/04/26 08:50:17;;;;;;;5.05;1.88;;;;;;;;;;4974153;28;92468;-76
2023/04/26 08:52:46;;;;;;;7.07;1.83;;;;;;;;;;4970579;28;96378;-78
2023/04/26 08:55:13;;;;;;;8.63;1.80;;;;;;;;;;4969402;28;93599;-78
2023/04/26 08:57:39;;;;;;;5.68;1.67;;;;;;;;;;4972467;28;91793;-77
2023/04/26 09:00:11;;;;;;;5.97;1.45;;;;;;;;;;4971941;28;94456;-77
2023/04/26 09:02:38;;;;;;;3.40;1.20;;;;;;;;;;4967904;28;92732;-78
2023/04/26 09:05:05;;;;;;;3.95;0.77;;;;;;;;;;4963500;28;95010;-78
2023/04/26 09:07:36;;;;;;;8.20;1.25;;;;;;;;;;4966480;28;94053;-71
2023/04/26 09:10:03;;;;;;;11.38;1.83;;;;;;;;;;4959569;28;93049;-71
2023/04/26 09:12:29;;;;;;;5.35;1.75;;;;;;;;;;4972909;28;93098;-71
2023/04/26 09:14:56;;;;;;;6.38;1.70;;;;;;;;;;4973463;28;94418;-75
2023/04/26 09:17:25;;;;;;;2.72;1.35;;;;;;;;;;4973829;28;92500;-73
2023/04/26 09:19:51;;;;;;;6.03;1.40;;;;;;;;;;4966796;28;93312;-75
2023/04/26 09:22:30;;;;;;;10.00;2.00;;;;;;;;;;4968166;28;91751;-73
2023/04/26 09:24:57;;;;;;;2.97;1.10;;;;;;;;;;4970214;28;93415;-78
2023/04/26 09:27:34;;;;;;;6.30;1.60;;;;;;;;;;4969205;28;93557;-77
2023/04/26 09:30:08;;;;;;;6.68;1.20;;;;;;;;;;4961092;28;94862;-78
2023/04/26 09:32:43;;;;;;;6.10;2.30;;;;;;;;;;4972332;28;96933;-78
2023/04/26 09:35:29;;;;;;;8.85;1.75;;;;;;;;;;4973432;28;94009;-78
2023/04/26 09:37:58;;;;;;;6.05;1.98;;;;;;;;;;4961475;28;92499;-78
2023/04/26 09:40:34;;;;;;;4.75;1.50;;;;;;;;;;4967435;28;93168;-78
2023/04/26 09:43:03;;;;;;;4.63;1.30;;;;;;;;;;4971712;28;94492;-78
2023/04/26 09:45:32;;;;;;;5.70;1.48;;;;;;;;;;4962146;28;94644;-78
2023/04/26 09:48:15;;;;;;;8.00;1.90;;;;;;;;;;4970216;28;92601;-78
2023/04/26 09:50:44;;;;;;;6.55;1.60;;;;;;;;;;4975164;28;92670;-79
2023/04/26 09:53:10;;;;;;;6.53;1.50;;;;;;;;;;4975110;28;94220;-79
2023/04/26 09:55:36;;;;;;;7.03;1.50;;;;;;;;;;4975441;28;95826;-78
2023/04/26 09:58:09;;;;;;;10.43;1.50;;;;;;;;;;4974309;28;92882;-78
2023/04/26 10:00:37;;;;;;;5.05;1.40;;;;;;;;;;4977361;28;94239;-79
2023/04/26 10:03:04;;;;;;;2.90;1.23;;;;;;;;;;4972584;28;94409;-75
2023/04/26 10:05:31;;;;;;;7.90;1.45;;;;;;;;;;4965369;28;93311;-77
2023/04/26 10:07:59;;;;;;;4.53;1.05;;;;;;;;;;4976127;28;94459;-78
2023/04/26 10:10:26;;;;;;;9.07;1.45;;;;;;;;;;4977200;28;92520;-76
2023/04/26 10:12:52;;;;;;;5.78;1.42;;;;;;;;;;4973944;28;94388;-76
2023/04/26 10:15:18;;;;;;;6.20;1.20;;;;;;;;;;4976832;28;94450;-77
2023/04/26 10:17:45;;;;;;;14.48;1.90;;;;;;;;;;4974941;28;92429;-74
2023/04/26 10:20:13;;;;;;;2.25;1.20;;;;;;;;;;4973725;28;95043;-76
2023/04/26 10:22:44;;;;;;;8.88;1.42;;;;;;;;;;4968043;28;94748;-77
2023/04/26 10:25:10;;;;;;;5.80;1.48;;;;;;;;;;4968225;28;94039;-77
2023/04/26 10:27:43;;;;;;;5.65;1.80;;;;;;;;;;4976600;28;94466;-76
2023/04/26 10:30:12;;;;;;;2.90;1.30;;;;;;;;;;4961670;28;92366;-79
2023/04/26 10:32:51;;;;;;;8.10;1.77;;;;;;;;;;4975083;28;92934;-77
2023/04/26 10:35:18;;;;;;;4.60;1.30;;;;;;;;;;4975500;28;94326;-77
2023/04/26 10:38:00;;;;;;;6.05;1.52;;;;;;;;;;4971050;28;91809;-77
2023/04/26 10:40:27;;;;;;;6.13;1.70;;;;;;;;;;4973436;28;93641;-78
2023/04/26 10:43:15;;;;;;;8.50;1.45;;;;;;;;;;4976126;28;92445;-76
2023/04/26 10:45:42;;;;;;;2.00;1.45;;;;;;;;;;4970337;28;95040;-78
2023/04/26 10:48:21;;;;;;;5.97;1.35;;;;;;;;;;4976471;28;95614;-78
2023/04/26 10:51:08;;;;;;;3.83;1.00;;;;;;;;;;4972254;28;92547;-74
2023/04/26 10:53:55;;;;;;;2.97;1.33;;;;;;;;;;4974151;28;93186;-77
2023/04/26 10:56:24;;;;;;;6.28;1.48;;;;;;;;;;4975810;28;93600;-77
2023/04/26 10:59:26;;;;;;;6.60;1.35;;;;;;;;;;4974292;28;93189;-76
2023/04/26 11:01:59;;;;;;;7.57;1.42;;;;;;;;;;4969520;28;92724;-75
2023/04/26 11:04:45;;;;;;;8.27;1.70;;;;;;;;;;4974215;28;92576;-75
2023/04/26 11:07:12;;;;;;;2.00;1.00;;;;;;;;;;4966626;28;92914;-76
2023/04/26 11:09:39;;;;;;;4.70;1.60;;;;;;;;;;4971823;28;93185;-77
2023/04/26 11:12:09;;;;;;;4.57;1.30;;;;;;;;;;4962967;28;95892;-75
2023/04/26 11:14:36;;;;;;;4.90;1.25;;;;;;;;;;4968100;28;96766;-78
2023/04/26 11:17:05;;;;;;;5.43;1.55;;;;;;;;;;4958919;28;94631;-77
2023/04/26 11:19:31;;;;;;;11.65;1.73;;;;;;;;;;4966669;28;92524;-78
2023/04/26 11:21:59;;;;;;;6.57;1.88;;;;;;;;;;4956456;28;94162;-79
2023/04/26 11:24:27;;;;;;;5.40;1.20;;;;;;;;;;4967627;28;93425;-79
2023/04/26 11:26:53;;;;;;;3.88;1.20;;;;;;;;;;4954051;28;92903;-79
2023/04/26 11:29:20;;;;;;;4.68;1.40;;;;;;;;;;4969184;28;93206;-79
2023/04/26 11:31:53;;;;;;;8.60;1.77;;;;;;;;;;4971105;28;93530;-79
2023/04/26 11:34:30;;;;;;;6.95;1.20;;;;;;;;;;4972487;28;92612;-79
2023/04/26 11:36:56;;;;;;;4.57;1.30;;;;;;;;;;4971482;28;96972;-78
2023/04/26 11:39:23;;;;;;;6.35;1.73;;;;;;;;;;4974730;28;92460;-79
2023/04/26 11:41:49;;;;;;;8.75;1.60;;;;;;;;;;4974783;28;93137;-79
2023/04/26 11:44:19;;;;;;;4.10;1.30;;;;;;;;;;4975152;28;94746;-79
2023/04/26 11:46:49;;;;;;;5.97;1.40;;;;;;;;;;4969284;28;92407;-77
2023/04/26 11:49:16;;;;;;;4.90;1.50;;;;;;;;;;4973246;28;93171;-79
2023/04/26 11:51:42;;;;;;;3.33;1.10;;;;;;;;;;4975515;28;93378;-79
2023/04/26 11:54:09;;;;;;;4.05;1.15;;;;;;;;;;4978742;28;91718;-78
2023/04/26 11:56:35;;;;;;;8.95;1.75;;;;;;;;;;4970486;28;93412;-79
2023/04/26 11:59:02;;;;;;;4.82;1.33;;;;;;;;;;4972043;28;92492;-78
2023/04/26 12:01:28;;;;;;;6.80;1.58;;;;;;;;;;4973676;28;94744;-78
2023/04/26 12:03:56;;;;;;;4.30;1.20;;;;;;;;;;4975059;28;94419;-79
2023/04/26 12:06:29;;;;;;;3.50;1.17;;;;;;;;;;4973886;28;92445;-79
2023/04/26 12:08:56;;;;;;;2.53;0.98;;;;;;;;;;4972111;28;93528;-79
2023/04/26 12:11:22;;;;;;;10.05;1.90;;;;;;;;;;4975016;28;93445;-79
2023/04/26 12:13:48;;;;;;;2.25;1.20;;;;;;;;;;4975205;28;92424;-79
2023/04/26 12:16:15;;;;;;;3.63;1.30;;;;;;;;;;4976120;28;93259;-78
2023/04/26 12:18:52;;;;;;;1.90;1.20;;;;;;;;;;4968682;28;91716;-79
2023/04/26 12:21:19;;;;;;;7.78;1.77;;;;;;;;;;4974672;28;92579;-79
2023/04/26 12:23:48;;;;;;;3.50;1.27;;;;;;;;;;4974499;28;93646;-79
2023/04/26 12:26:15;;;;;;;3.95;1.20;;;;;;;;;;4971923;28;94834;-79
2023/04/26 12:28:41;;;;;;;11.55;2.05;;;;;;;;;;4967896;28;95790;-79
2023/04/26 12:31:08;;;;;;;3.95;1.40;;;;;;;;;;4964904;28;93509;-79
2023/04/26 12:33:34;;;;;;;5.00;1.50;;;;;;;;;;4973885;28;92520;-80
2023/04/26 12:36:10;;;;;;;7.30;1.45;;;;;;;;;;4974046;28;93222;-79
2023/04/26 12:38:37;;;;;;;8.98;2.30;;;;;;;;;;4974682;28;93496;-78
2023/04/26 12:41:04;;;;;;;4.63;1.48;;;;;;;;;;4973629;28;93679;-79
2023/04/26 12:43:30;;;;;;;5.38;1.70;;;;;;;;;;4974884;28;93273;-80
2023/04/26 12:45:57;;;;;;;3.03;1.13;;;;;;;;;;4973121;28;92492;-79
2023/04/26 12:48:23;;;;;;;7.55;1.50;;;;;;;;;;4962817;28;93122;-78
2023/04/26 12:50:50;;;;;;;8.85;2.10;;;;;;;;;;4971378;28;96151;-76
2023/04/26 12:53:17;;;;;;;8.40;1.50;;;;;;;;;;4955451;28;92418;-75
2023/04/26 12:55:43;;;;;;;6.80;1.30;;;;;;;;;;4954734;28;94338;-78
2023/04/26 12:58:10;;;;;;;4.45;1.63;;;;;;;;;;4972073;28;93408;-76
2023/04/26 13:00:36;;;;;;;7.68;1.73;;;;;;;;;;4977887;28;92442;-77
2023/04/26 13:03:03;;;;;;;5.95;1.52;;;;;;;;;;4972709;28;92560;-76
2023/04/26 13:05:31;;;;;;;5.55;1.50;;;;;;;;;;4961519;28;92454;-77
2023/04/26 13:07:59;;;;;;;6.45;1.63;;;;;;;;;;4960277;28;94333;-75
2023/04/26 13:10:25;;;;;;;4.38;1.63;;;;;;;;;;4972761;28;94745;-77
2023/04/26 13:12:52;;;;;;;4.82;1.50;;;;;;;;;;4955620;28;93335;-76
2023/04/26 13:15:19;;;;;;;3.45;1.27;;;;;;;;;;4958441;28;95070;-76
2023/04/26 13:17:46;;;;;;;1.52;1.13;;;;;;;;;;4968510;28;94522;-77
2023/04/26 13:20:12;;;;;;;2.97;1.42;;;;;;;;;;4968179;28;92422;-76
2023/04/26 13:22:41;;;;;;;6.28;1.50;;;;;;;;;;4959588;28;94510;-74
2023/04/26 13:25:08;;;;;;;12.48;2.28;;;;;;;;;;4954661;28;92516;-77
2023/04/26 13:27:34;;;;;;;3.88;1.20;;;;;;;;;;4961760;28;93274;-78
2023/04/26 13:30:00;;;;;;;8.93;1.55;;;;;;;;;;4973336;28;93523;-75
2023/04/26 13:32:28;;;;;;;8.55;2.67;;;;;;;;;;4970626;28;91795;-77
2023/04/26 13:34:54;;;;;;;3.55;1.52;;;;;;;;;;4973905;28;92396;-78
2023/04/26 13:37:21;;;;;;;5.25;1.52;;;;;;;;;;4972906;28;96123;-77
2023/04/26 13:39:50;;;;;;;6.93;1.70;;;;;;;;;;4967869;28;94864;-74
2023/04/26 13:42:16;;;;;;;5.93;1.73;;;;;;;;;;4964187;28;96703;-75
2023/04/26 13:44:43;;;;;;;7.47;1.77;;;;;;;;;;4962561;28;94284;-75
2023/04/26 13:47:09;;;;;;;6.25;2.08;;;;;;;;;;4962977;28;95826;-79
2023/04/26 13:49:36;;;;;;;6.28;1.75;;;;;;;;;;4969394;28;93492;-79
2023/04/26 13:52:02;;;;;;;4.85;1.67;;;;;;;;;;4956840;28;92574;-80
2023/04/26 13:54:28;;;;;;;6.00;1.70;;;;;;;;;;4972521;28;93544;-80
2023/04/26 13:56:55;;;;;;;3.67;1.65;;;;;;;;;;4971167;28;92903;-80
2023/04/26 13:59:21;;;;;;;9.25;2.38;;;;;;;;;;4968433;28;92529;-80
2023/04/26 14:01:48;;;;;;;6.72;1.83;;;;;;;;;;4972020;28;94365;-78
2023/04/26 14:04:16;;;;;;;3.03;1.40;;;;;;;;;;4974119;28;95898;-80
2023/04/26 14:06:43;;;;;;;6.68;1.95;;;;;;;;;;4971545;28;95672;-78
2023/04/26 14:09:09;;;;;;;3.88;1.85;;;;;;;;;;4971325;28;93459;-80
2023/04/26 14:11:35;;;;;;;8.20;2.53;;;;;;;;;;4972116;28;92552;-80
2023/04/26 14:14:02;;;;;;;4.57;1.73;;;;;;;;;;4959142;28;93553;-79
2023/04/26 14:16:28;;;;;;;5.60;1.98;;;;;;;;;;4969952;28;92579;-80
2023/04/26 14:18:54;;;;;;;8.52;1.85;;;;;;;;;;4972676;28;92573;-78
2023/04/26 14:21:21;;;;;;;6.32;1.60;;;;;;;;;;4971312;28;93016;-80
2023/04/26 14:23:47;;;;;;;8.50;2.13;;;;;;;;;;4961608;28;93422;-80
2023/04/26 14:26:13;;;;;;;6.47;2.03;;;;;;;;;;4960106;28;92529;-79
2023/04/26 14:28:40;;;;;;;7.25;1.80;;;;;;;;;;4971583;28;95847;-80
2023/04/26 14:31:07;;;;;;;6.75;2.08;;;;;;;;;;4972841;28;92618;-80
2023/04/26 14:33:33;;;;;;;10.05;1.73;;;;;;;;;;4974307;28;93241;-80
2023/04/26 14:36:00;;;;;;;10.05;2.22;;;;;;;;;;4976474;28;93445;-79
2023/04/26 14:38:26;;;;;;;7.95;1.85;;;;;;;;;;4976867;28;92766;-79